Time;durP1;ratioP1;P1;durP2;ratioP2;P2;SDS_P1;SDS_P2;PMS_P1;PMS_P2;Temp;Humidity;BMP_temperature;BMP_pressure;BME280_temperature;BME280_humidity;BME280_pressure;Samples;Min_cycle;Max_cycle;Signal;HPM_P1;HPM_P2
2022/09/20 00:01:03;;;;;;;10.00;8.97;;;;;;;9.72;100.00;98520.87;2173556;81;20992;-79
2022/09/20 00:04:03;;;;;;;12.50;8.23;;;;;;;9.70;100.00;98524.31;2173674;81;20941;-80
2022/09/20 00:07:04;;;;;;;9.67;8.67;;;;;;;9.70;100.00;98529.53;2173642;81;20928;-80
2022/09/20 00:10:04;;;;;;;12.47;8.50;;;;;;;9.70;100.00;98538.65;2173905;81;20984;-80
2022/09/20 00:13:05;;;;;;;8.70;7.80;;;;;;;9.68;100.00;98533.85;2173533;81;21016;-79
2022/09/20 00:16:05;;;;;;;11.50;8.80;;;;;;;9.67;100.00;98537.31;2172558;81;21167;-80
2022/09/20 00:19:05;;;;;;;10.37;9.13;;;;;;;9.64;100.00;98536.85;2172279;81;20965;-79
2022/09/20 00:22:06;;;;;;;11.33;10.23;;;;;;;9.62;100.00;98532.05;2173499;81;21000;-79
2022/09/20 00:25:06;;;;;;;13.00;11.73;;;;;;;9.62;100.00;98532.48;2172998;81;20996;-79
2022/09/20 00:28:07;;;;;;;11.43;10.37;;;;;;;9.62;100.00;98539.88;2173899;81;20945;-79
2022/09/20 00:31:07;;;;;;;13.23;11.83;;;;;;;9.60;100.00;98535.08;2173604;81;20906;-80
2022/09/20 00:37:26;;;;;;;16.40;10.77;;;;;;;9.58;100.00;98533.75;2173898;82;20937;-81
2022/09/20 00:40:27;;;;;;;12.10;10.87;;;;;;;9.57;100.00;98534.61;2173997;81;20917;-80
2022/09/20 00:43:27;;;;;;;11.40;10.40;;;;;;;9.54;100.00;98542.82;2173887;81;21321;-80
2022/09/20 00:46:27;;;;;;;14.43;11.60;;;;;;;9.52;100.00;98551.02;2173748;81;20928;-80
2022/09/20 00:49:28;;;;;;;13.00;11.73;;;;;;;9.47;100.00;98544.45;2181078;81;20972;-80
2022/09/20 00:52:28;;;;;;;14.60;13.00;;;;;;;9.46;100.00;98547.91;2188586;81;21399;-79
2022/09/20 00:55:29;;;;;;;14.30;12.17;;;;;;;9.45;100.00;98557.89;2188549;81;21063;-79
2022/09/20 00:58:29;;;;;;;14.20;10.70;;;;;;;9.44;100.00;98549.62;2188231;81;20960;-80
2022/09/20 01:01:30;;;;;;;17.17;10.90;;;;;;;9.44;100.00;98553.97;2188626;81;21399;-81
2022/09/20 01:04:30;;;;;;;13.13;10.70;;;;;;;9.42;100.00;98550.04;2188582;81;21377;-80
2022/09/20 01:07:30;;;;;;;11.03;9.73;;;;;;;9.41;100.00;98552.63;2189994;81;20941;-80
2022/09/20 01:10:31;;;;;;;11.07;9.97;;;;;;;9.39;100.00;98546.52;2190403;81;20977;-78
2022/09/20 01:13:31;;;;;;;14.40;11.03;;;;;;;9.37;100.00;98544.33;2190180;81;21368;-80
2022/09/20 01:16:31;;;;;;;13.07;10.80;;;;;;;9.36;100.00;98541.28;2190145;81;21008;-80
2022/09/20 01:19:32;;;;;;;14.63;10.73;;;;;;;9.34;100.00;98546.47;2190142;81;20940;-80
2022/09/20 01:22:32;;;;;;;10.43;9.43;;;;;;;9.31;100.00;98540.35;2190067;81;21328;-80
2022/09/20 01:25:33;;;;;;;11.47;8.90;;;;;;;9.27;100.00;98548.55;2190074;81;21087;-80
2022/09/20 01:28:33;;;;;;;9.37;8.53;;;;;;;9.23;100.00;98551.98;2190128;81;20944;-80
2022/09/20 01:31:33;;;;;;;10.13;9.13;;;;;;;9.18;100.00;98555.83;2190082;81;21272;-80
2022/09/20 01:34:34;;;;;;;9.67;8.67;;;;;;;9.17;100.00;98555.81;2190021;81;20937;-79
2022/09/20 01:37:34;;;;;;;11.13;10.07;;;;;;;9.14;100.00;98552.73;2189665;81;20949;-80
2022/09/20 01:40:35;;;;;;;11.73;10.53;;;;;;;9.14;100.00;98554.04;2190067;81;21321;-78
2022/09/20 01:43:35;;;;;;;12.67;10.00;;;;;;;9.13;100.00;98548.81;2190309;81;20905;-81
2022/09/20 01:46:35;;;;;;;12.50;10.63;;;;;;;9.14;100.00;98550.56;2190170;81;20967;-80
2022/09/20 01:49:36;;;;;;;11.13;9.93;;;;;;;9.12;100.00;98550.97;2189944;81;21004;-80
2022/09/20 01:52:36;;;;;;;12.53;11.23;;;;;;;9.13;100.00;98547.52;2190076;81;20928;-80
2022/09/20 01:55:37;;;;;;;12.63;11.47;;;;;;;9.15;100.00;98549.70;2190000;81;20941;-79
2022/09/20 01:58:37;;;;;;;13.40;12.13;;;;;;;9.13;100.00;98547.52;2190339;81;20973;-83
2022/09/20 02:01:37;;;;;;;14.63;11.93;;;;;;;9.13;100.00;98549.69;2190369;81;20933;-80
2022/09/20 02:04:39;;;;;;;13.90;12.27;;;;;;;9.14;100.00;98552.73;2190098;81;20960;-80
2022/09/20 02:07:38;;;;;;;16.13;11.87;;;;;;;9.13;100.00;98561.83;2190314;81;20933;-81
2022/09/20 02:10:39;;;;;;;10.60;9.53;;;;;;;9.10;100.00;98551.38;2190029;81;20948;-83
2022/09/20 02:13:39;;;;;;;9.20;8.30;;;;;;;9.09;100.00;98556.14;2190148;81;20960;-79
2022/09/20 02:16:39;;;;;;;8.97;8.07;;;;;;;9.09;100.00;98559.61;2190011;81;20929;-79
2022/09/20 02:19:40;;;;;;;11.87;7.87;;;;;;;9.10;100.00;98561.36;2189685;81;20983;-79
2022/09/20 02:22:40;;;;;;;9.07;8.00;;;;;;;9.11;100.00;98566.14;2188474;81;21312;-80
2022/09/20 02:25:41;;;;;;;9.27;8.07;;;;;;;9.12;100.00;98564.86;2189027;81;21046;-79
2022/09/20 02:28:41;;;;;;;9.63;8.67;;;;;;;9.11;100.00;98564.41;2189762;81;21021;-78
2022/09/20 02:31:41;;;;;;;10.33;8.60;;;;;;;9.10;100.00;98564.39;2190006;81;21332;-79
2022/09/20 02:34:42;;;;;;;9.80;8.47;;;;;;;9.10;100.00;98561.79;2189868;81;20952;-79
2022/09/20 02:37:42;;;;;;;8.80;7.90;;;;;;;9.10;100.00;98561.79;2190074;81;21027;-78
2022/09/20 02:40:43;;;;;;;9.63;8.63;;;;;;;9.09;100.00;98567.42;2190111;81;20924;-79
2022/09/20 02:43:43;;;;;;;8.60;7.73;;;;;;;9.10;100.00;98569.61;2188772;81;20980;-79
2022/09/20 02:46:43;;;;;;;10.30;9.30;;;;;;;9.09;100.00;98573.94;2188243;81;20987;-78
2022/09/20 02:49:44;;;;;;;11.40;9.37;;;;;;;9.06;100.00;98571.72;2188082;81;21000;-78
2022/09/20 02:52:44;;;;;;;9.07;7.53;;;;;;;9.05;100.00;98566.06;2188112;81;21926;-79
2022/09/20 02:55:45;;;;;;;14.83;8.90;;;;;;;9.05;100.00;98573.88;2187705;81;21264;-78
2022/09/20 02:58:45;;;;;;;13.20;8.80;;;;;;;9.04;100.00;98577.33;2188067;81;20996;-77
2022/09/20 03:01:45;;;;;;;9.40;8.50;;;;;;;9.05;100.00;98575.17;2187988;81;20964;-78
2022/09/20 03:04:46;;;;;;;12.70;7.97;;;;;;;9.05;100.00;98575.17;2187980;81;20932;-78
2022/09/20 03:07:46;;;;;;;10.47;7.93;;;;;;;9.06;100.00;98576.92;2188618;81;21052;-78
2022/09/20 03:10:47;;;;;;;8.90;7.77;;;;;;;9.06;100.00;98583.44;2189635;81;20889;-78
2022/09/20 03:13:47;;;;;;;9.37;8.50;;;;;;;9.08;100.00;98586.94;2190760;81;20957;-80
2022/09/20 03:16:47;;;;;;;10.67;8.10;;;;;;;9.06;100.00;98587.34;2190199;81;21352;-78
2022/09/20 03:19:48;;;;;;;8.43;7.57;;;;;;;9.04;100.00;98585.14;2190085;81;20941;-79
2022/09/20 03:22:48;;;;;;;10.37;8.20;;;;;;;9.06;100.00;98583.44;2189941;81;20977;-80
2022/09/20 03:25:49;;;;;;;12.03;8.37;;;;;;;9.05;100.00;98585.16;2189718;81;21422;-80
2022/09/20 03:28:49;;;;;;;9.07;8.17;;;;;;;9.07;100.00;98586.06;2189625;81;20932;-80
2022/09/20 03:31:49;;;;;;;12.33;9.00;;;;;;;9.08;100.00;98590.84;2190928;81;20953;-80
2022/09/20 03:34:50;;;;;;;9.97;9.07;;;;;;;9.11;100.00;98594.78;2190573;81;21336;-80
2022/09/20 03:37:50;;;;;;;10.47;9.43;;;;;;;9.10;100.00;98596.94;2189221;81;20932;-79
2022/09/20 03:40:51;;;;;;;12.93;9.93;;;;;;;9.11;100.00;98595.66;2189630;81;21011;-79
2022/09/20 03:43:51;;;;;;;14.47;11.00;;;;;;;9.11;100.00;98596.09;2188412;81;20975;-78
2022/09/20 03:46:51;;;;;;;13.03;11.77;;;;;;;9.11;100.00;98595.66;2187801;81;20920;-79
2022/09/20 03:49:52;;;;;;;15.50;12.80;;;;;;;9.14;100.00;98603.94;2186583;81;20956;-79
2022/09/20 03:52:52;;;;;;;15.23;13.77;;;;;;;9.15;100.00;98596.16;2186059;81;21002;-78
2022/09/20 03:55:53;;;;;;;14.17;12.80;;;;;;;9.15;100.00;98596.58;2185156;81;21621;-78
2022/09/20 03:58:53;;;;;;;18.30;14.40;;;;;;;9.15;100.00;98596.58;2186169;81;21447;-78
2022/09/20 04:01:53;;;;;;;19.70;17.70;;;;;;;9.17;100.00;98600.08;2185710;81;20952;-78
2022/09/20 04:04:54;;;;;;;21.73;17.13;;;;;;;9.20;100.00;98601.42;2185210;81;21021;-78
2022/09/20 04:07:55;;;;;;;17.43;15.63;;;;;;;9.20;100.00;98611.41;2183878;81;21415;-78
2022/09/20 04:10:56;;;;;;;16.00;14.13;;;;;;;9.24;100.00;98613.63;2183827;81;21265;-79
2022/09/20 04:13:55;;;;;;;16.20;14.57;;;;;;;9.25;100.00;98611.47;2185746;81;21070;-78
2022/09/20 04:16:56;;;;;;;15.90;14.43;;;;;;;9.26;100.00;98615.40;2185318;81;21439;-77
2022/09/20 04:19:56;;;;;;;14.33;12.83;;;;;;;9.28;100.00;98624.53;2185737;81;20991;-77
2022/09/20 04:22:59;;;;;;;15.03;13.53;;;;;;;9.29;100.00;98624.98;2184779;81;20988;-77
2022/09/20 04:26:00;;;;;;;16.30;14.53;;;;;;;9.30;100.00;98623.25;2184676;81;21066;-77
2022/09/20 04:29:00;;;;;;;17.13;15.07;;;;;;;9.32;100.00;98627.63;2185740;81;20999;-78
2022/09/20 04:32:02;;;;;;;16.37;14.43;;;;;;;9.35;100.00;98633.30;2185717;81;21004;-78
2022/09/20 04:38:20;;;;;;;18.63;16.30;;;;;;;9.35;100.00;98634.61;2184657;81;20933;-77
2022/09/20 04:41:21;;;;;;;20.90;16.60;;;;;;;9.35;100.00;98639.81;2185498;81;21948;-78
2022/09/20 04:44:21;;;;;;;17.97;14.10;;;;;;;9.38;100.00;98637.25;2185339;81;21031;-79
2022/09/20 04:47:21;;;;;;;19.17;15.53;;;;;;;9.40;100.00;98638.15;2185397;81;21038;-79
2022/09/20 04:50:22;;;;;;;17.40;15.07;;;;;;;9.43;100.00;98639.06;2186426;81;21051;-78
2022/09/20 04:53:22;;;;;;;17.53;13.97;;;;;;;9.44;100.00;98639.94;2186653;81;21039;-79
2022/09/20 04:56:23;;;;;;;16.47;14.23;;;;;;;9.46;100.00;98639.10;2185412;81;21373;-79
2022/09/20 04:59:23;;;;;;;17.47;14.57;;;;;;;9.51;100.00;98640.47;2186522;81;21039;-77
2022/09/20 05:02:23;;;;;;;18.53;14.37;;;;;;;9.57;100.00;98641.88;2184970;81;21379;-80
2022/09/20 05:05:24;;;;;;;17.90;15.90;;;;;;;9.65;100.00;98640.67;2187162;81;20987;-80
2022/09/20 05:08:24;;;;;;;25.97;16.63;;;;;;;9.71;100.00;98640.31;2188539;81;20953;-79
2022/09/20 05:11:29;;;;;;;19.83;16.17;;;;;;;9.75;100.00;98649.92;2188188;81;20980;-81
2022/09/20 05:14:26;;;;;;;20.37;15.67;;;;;;;9.78;100.00;98644.74;2187870;81;20932;-80
2022/09/20 05:17:26;;;;;;;15.90;14.07;;;;;;;9.81;100.00;98655.63;2187518;81;20991;-80
2022/09/20 05:20:26;;;;;;;21.93;14.17;;;;;;;9.78;100.00;98653.86;2187001;81;21020;-82
2022/09/20 05:23:26;;;;;;;17.13;13.43;;;;;;;9.75;100.00;98656.86;2187397;81;20960;-82
2022/09/20 05:26:27;;;;;;;15.83;14.23;;;;;;;9.72;100.00;98660.73;2186968;81;21035;-80
2022/09/20 05:29:28;;;;;;;17.17;15.37;;;;;;;9.71;100.00;98663.77;2187364;81;21607;-82
2022/09/20 05:32:28;;;;;;;16.77;14.97;;;;;;;9.71;100.00;98662.47;2187161;81;21020;-82
2022/09/20 05:35:28;;;;;;;16.83;15.03;;;;;;;9.69;100.00;98667.22;2185950;81;21020;-81
2022/09/20 05:38:28;;;;;;;20.57;13.93;;;;;;;9.68;100.00;98665.03;2186888;81;20935;-81
2022/09/20 05:41:30;;;;;;;19.97;15.90;;;;;;;9.67;100.00;98667.20;2187703;81;21035;-81
2022/09/20 05:44:29;;;;;;;19.03;14.33;;;;;;;9.69;100.00;98674.61;2187585;81;20988;-82
2022/09/20 05:47:30;;;;;;;24.47;17.20;;;;;;;9.68;100.00;98674.59;2188028;81;21008;-81
2022/09/20 05:50:30;;;;;;;16.33;14.60;;;;;;;9.66;100.00;98678.91;2180696;81;20969;-80
2022/09/20 05:53:31;;;;;;;17.00;14.97;;;;;;;9.66;100.00;98682.38;2170724;81;20972;-81
2022/09/20 05:56:31;;;;;;;21.87;14.70;;;;;;;9.70;100.00;98685.91;2170381;81;21456;-81
2022/09/20 05:59:31;;;;;;;18.60;14.07;;;;;;;9.73;100.00;98688.55;2169944;81;20972;-80
2022/09/20 06:02:32;;;;;;;14.90;13.40;;;;;;;9.80;100.00;98696.47;2170760;81;21040;-80
2022/09/20 06:05:33;;;;;;;15.20;13.60;;;;;;;9.82;100.00;98696.48;2169961;81;20921;-78
2022/09/20 06:08:33;;;;;;;15.93;12.93;;;;;;;9.85;100.00;98703.05;2170580;81;20933;-82
2022/09/20 06:11:33;;;;;;;13.33;12.10;;;;;;;9.85;100.00;98704.34;2170862;81;20980;-81
2022/09/20 06:14:33;;;;;;;14.93;13.23;;;;;;;9.83;100.00;98707.36;2170733;81;20973;-80
2022/09/20 06:17:34;;;;;;;14.57;13.17;;;;;;;9.79;100.00;98707.75;2171673;81;21019;-81
2022/09/20 06:20:35;;;;;;;14.77;11.77;;;;;;;9.78;100.00;98711.64;2170315;82;21101;-81
2022/09/20 06:23:35;;;;;;;13.57;11.80;;;;;;;9.74;100.00;98713.77;2171310;81;20953;-82
2022/09/20 06:26:36;;;;;;;13.47;12.13;;;;;;;9.71;100.00;98715.02;2170417;81;21051;-80
2022/09/20 06:29:37;;;;;;;12.87;11.43;;;;;;;9.73;100.00;98719.83;2170839;81;20994;-80
2022/09/20 06:32:37;;;;;;;11.97;10.83;;;;;;;9.71;100.00;98725.45;2171034;81;21006;-81
2022/09/20 06:35:37;;;;;;;12.80;11.43;;;;;;;9.71;100.00;98722.84;2171885;81;21047;-81
2022/09/20 06:41:53;;;;;;;12.37;11.27;;;;;;;9.71;100.00;98731.54;2171235;81;21341;-80
2022/09/20 06:44:54;;;;;;;13.90;11.90;;;;;;;9.73;100.00;98727.65;2171395;81;20988;-80
2022/09/20 06:47:54;;;;;;;17.00;13.00;;;;;;;9.75;100.00;98731.15;2171527;81;21008;-82
2022/09/20 06:50:54;;;;;;;14.27;12.43;;;;;;;9.80;100.00;98736.88;2171633;81;20977;-81
2022/09/20 06:53:55;;;;;;;14.60;13.10;;;;;;;9.81;100.00;98735.14;2172409;81;20956;-82
2022/09/20 06:56:55;;;;;;;14.17;12.80;;;;;;;9.81;100.00;98733.84;2171381;81;21430;-80
2022/09/20 06:59:56;;;;;;;38.10;27.03;;;;;;;9.82;100.00;98732.98;2170530;81;21020;-81
2022/09/20 07:02:56;;;;;;;38.33;32.50;;;;;;;9.85;100.00;98731.30;2170996;81;21017;-82
2022/09/20 07:05:57;;;;;;;19.50;17.60;;;;;;;9.96;100.00;98736.64;2171509;81;21376;-83
2022/09/20 07:08:57;;;;;;;23.03;20.30;;;;;;;10.14;100.00;98744.69;2171103;81;20937;-83
2022/09/20 07:12:00;;;;;;;17.67;15.10;;;;;;;10.36;99.55;98744.53;2170139;81;20993;-82
2022/09/20 07:15:01;;;;;;;15.27;13.83;;;;;;;10.64;99.03;98741.81;2170245;81;20996;-82
2022/09/20 07:18:01;;;;;;;15.97;12.60;;;;;;;10.88;98.16;98741.60;2170831;81;20940;-82
2022/09/20 07:21:01;;;;;;;12.30;10.37;;;;;;;11.11;96.75;98746.59;2171250;81;20969;-82
2022/09/20 07:24:02;;;;;;;11.50;10.40;;;;;;;11.28;94.68;98754.59;2172004;82;20956;-84
2022/09/20 07:27:03;;;;;;;12.03;10.65;;;;;;;11.45;94.21;98750.36;2172000;81;21020;-83
2022/09/20 07:30:03;;;;;;;11.15;10.00;;;;;;;11.53;94.10;98758.25;2172469;81;20964;-81
2022/09/20 07:33:03;;;;;;;13.80;9.93;;;;;;;11.64;92.74;98765.30;2173310;81;21385;-82
2022/09/20 07:36:04;;;;;;;12.65;9.68;;;;;;;11.70;92.20;98769.69;2171807;82;21004;-82
2022/09/20 07:39:04;;;;;;;10.90;9.80;;;;;;;11.70;92.42;98767.07;2171901;81;20960;-84
2022/09/20 07:42:07;;;;;;;15.35;9.70;;;;;;;11.73;91.06;98771.02;2171422;81;20933;-81
2022/09/20 07:45:08;;;;;;;12.57;9.27;;;;;;;11.76;90.83;98770.59;2171447;81;20945;-81
2022/09/20 07:48:08;;;;;;;9.88;8.18;;;;;;;11.77;90.29;98776.70;2170774;81;21267;-82
2022/09/20 07:51:09;;;;;;;8.68;7.80;;;;;;;11.89;89.48;98771.58;2171862;81;21047;-81
2022/09/20 07:54:09;;;;;;;7.33;6.60;;;;;;;11.89;89.48;98771.58;2170586;81;20992;-80
2022/09/20 07:57:10;;;;;;;9.23;7.12;;;;;;;11.95;86.60;98773.34;2170729;81;21027;-83
2022/09/20 08:00:10;;;;;;;8.60;7.00;;;;;;;12.02;86.91;98783.85;2170643;81;20964;-81
2022/09/20 08:03:11;;;;;;;8.30;7.37;;;;;;;12.11;86.53;98779.97;2170746;81;21028;-81
2022/09/20 08:06:13;;;;;;;7.08;6.37;;;;;;;12.09;86.25;98784.33;2171036;81;20992;-81
2022/09/20 08:09:11;;;;;;;7.15;6.45;;;;;;;12.03;84.75;98792.14;2171405;81;20937;-81
2022/09/20 08:12:13;;;;;;;9.43;7.00;;;;;;;12.04;84.65;98792.58;2171280;81;21046;-82
2022/09/20 08:15:12;;;;;;;10.10;8.10;;;;;;;12.15;84.82;98790.48;2171357;81;21086;-83
2022/09/20 08:18:15;;;;;;;8.78;7.33;;;;;;;12.24;85.58;98799.69;2171321;81;20968;-81
2022/09/20 08:21:13;;;;;;;7.28;6.12;;;;;;;12.35;85.05;98792.31;2171311;81;20968;-81
2022/09/20 08:24:15;;;;;;;7.87;5.92;;;;;;;12.46;84.22;98797.59;2170907;81;21440;-81
2022/09/20 08:27:14;;;;;;;6.90;6.20;;;;;;;12.45;84.06;98793.22;2171119;81;21451;-79
2022/09/20 08:30:14;;;;;;;6.28;5.78;;;;;;;12.61;82.92;98797.64;2170948;81;21000;-80
2022/09/20 08:33:14;;;;;;;9.50;5.83;;;;;;;12.68;82.09;98798.09;2171551;81;20968;-80
2022/09/20 08:36:15;;;;;;;11.15;5.45;;;;;;;12.63;82.49;98799.83;2170939;81;21075;-79
2022/09/20 08:39:15;;;;;;;5.60;4.62;;;;;;;12.61;82.16;98789.78;2171122;81;20976;-79
2022/09/20 08:42:16;;;;;;;6.15;5.08;;;;;;;12.67;81.28;98793.73;2170257;81;21028;-81
2022/09/20 08:45:16;;;;;;;7.40;5.58;;;;;;;12.57;81.05;98794.58;2171236;81;20948;-79
2022/09/20 08:48:17;;;;;;;5.67;5.05;;;;;;;12.47;81.81;98792.80;2171063;82;21004;-81
2022/09/20 08:51:18;;;;;;;6.28;5.50;;;;;;;12.44;83.10;98795.41;2177676;81;21490;-80
2022/09/20 08:54:17;;;;;;;9.80;4.58;;;;;;;12.57;82.98;98798.94;2189953;81;21323;-80
2022/09/20 08:57:18;;;;;;;7.58;4.40;;;;;;;12.61;81.17;98809.42;2187081;81;21047;-80
2022/09/20 09:00:18;;;;;;;6.72;4.47;;;;;;;12.55;80.97;98804.17;2187068;81;20925;-81
2022/09/20 09:03:19;;;;;;;6.10;4.37;;;;;;;12.48;81.22;98807.63;2188442;81;20979;-80
2022/09/20 09:06:19;;;;;;;6.83;4.05;;;;;;;12.50;80.63;98808.52;2187508;81;21442;-80
2022/09/20 09:09:20;;;;;;;4.10;3.72;;;;;;;12.56;81.50;98811.16;2188294;81;21002;-81
2022/09/20 09:12:20;;;;;;;4.47;4.08;;;;;;;12.70;80.36;98817.30;2187442;81;21011;-80
2022/09/20 09:15:21;;;;;;;31.60;5.62;;;;;;;12.91;81.33;98811.25;2188036;81;21011;-79
2022/09/20 09:18:21;;;;;;;6.08;3.62;;;;;;;13.32;79.82;98801.31;2187181;81;21384;-80
2022/09/20 09:21:21;;;;;;;4.65;4.25;;;;;;;13.62;78.66;98801.30;2187446;81;20905;-80
2022/09/20 09:24:22;;;;;;;3.92;3.52;;;;;;;13.75;78.94;98796.91;2187111;81;21011;-80
2022/09/20 09:27:22;;;;;;;4.08;3.70;;;;;;;13.65;77.93;98799.98;2186856;81;21023;-81
2022/09/20 09:30:23;;;;;;;4.75;4.35;;;;;;;13.34;77.45;98800.44;2186236;81;20964;-79
2022/09/20 09:33:24;;;;;;;5.87;4.37;;;;;;;13.08;78.06;98805.63;2185327;81;21051;-80
2022/09/20 09:36:24;;;;;;;5.35;3.67;;;;;;;12.94;79.86;98797.28;2184283;81;21019;-80
2022/09/20 09:39:24;;;;;;;6.17;4.00;;;;;;;12.90;78.60;98804.25;2184639;81;21018;-79
2022/09/20 09:42:27;;;;;;;6.12;4.17;;;;;;;12.98;79.24;98803.83;2186138;81;21014;-79
2022/09/20 09:45:27;;;;;;;6.72;4.28;;;;;;;13.08;77.55;98800.38;2186379;81;21364;-81
2022/09/20 09:48:29;;;;;;;4.70;4.30;;;;;;;13.11;78.56;98802.57;2187213;81;21710;-80
2022/09/20 09:51:31;;;;;;;4.87;4.12;;;;;;;13.25;77.96;98795.19;2181455;81;21059;-79
2022/09/20 09:54:29;;;;;;;4.58;3.92;;;;;;;13.39;78.51;98793.88;2170079;81;20950;-79
2022/09/20 09:57:30;;;;;;;5.58;4.45;;;;;;;13.50;77.26;98798.68;2170809;81;21419;-79
2022/09/20 10:00:30;;;;;;;8.20;5.37;;;;;;;13.51;78.32;98800.42;2170546;81;21023;-78
2022/09/20 10:03:30;;;;;;;8.65;6.20;;;;;;;13.60;76.30;98800.42;2172197;81;20956;-79
2022/09/20 10:06:30;;;;;;;8.35;6.08;;;;;;;13.70;76.45;98794.28;2170284;82;20968;-79
2022/09/20 10:09:31;;;;;;;4.65;4.25;;;;;;;13.82;74.69;98790.77;2170658;81;21002;-79
2022/09/20 10:12:31;;;;;;;5.53;4.10;;;;;;;13.69;74.63;98805.66;2170107;81;20992;-79
2022/09/20 10:15:31;;;;;;;5.08;4.15;;;;;;;13.67;76.92;98794.73;2170155;81;21028;-79
2022/09/20 10:18:32;;;;;;;5.70;4.50;;;;;;;13.54;76.64;98803.48;2168731;81;20984;-78
2022/09/20 10:21:35;;;;;;;6.10;4.33;;;;;;;13.49;77.43;98806.55;2168946;81;21877;-79
2022/09/20 10:24:33;;;;;;;8.25;4.37;;;;;;;13.48;76.34;98810.05;2168468;81;20960;-77
2022/09/20 10:27:33;;;;;;;6.90;5.20;;;;;;;13.41;76.94;98803.93;2168682;81;21293;-78
2022/09/20 10:30:33;;;;;;;6.25;4.55;;;;;;;13.55;77.89;98806.55;2169448;81;20999;-78
2022/09/20 10:33:36;;;;;;;8.23;4.80;;;;;;;13.67;75.76;98817.02;2168948;81;21388;-76
2022/09/20 10:36:34;;;;;;;6.12;4.65;;;;;;;13.65;75.57;98806.97;2169844;81;21015;-79
2022/09/20 10:39:35;;;;;;;7.55;4.30;;;;;;;13.70;75.79;98806.09;2170989;81;21262;-78
2022/09/20 10:45:54;;;;;;;4.50;4.00;;;;;;;14.13;73.38;98804.72;2170738;82;20985;-78
2022/09/20 10:48:55;;;;;;;4.87;3.98;;;;;;;14.60;73.20;98801.06;2170227;81;21042;-79
2022/09/20 10:51:56;;;;;;;5.20;4.58;;;;;;;14.92;71.85;98790.40;2175826;81;21050;-78
2022/09/20 10:54:56;;;;;;;4.72;3.98;;;;;;;15.22;70.49;98794.13;2184506;81;20984;-78
2022/09/20 10:57:57;;;;;;;5.60;4.28;;;;;;;14.87;70.21;98799.63;2184614;81;21027;-78
2022/09/20 11:00:57;;;;;;;6.47;4.35;;;;;;;14.70;69.16;98798.81;2183167;81;21000;-77
2022/09/20 11:03:57;;;;;;;5.85;4.00;;;;;;;14.55;70.19;98810.27;2183503;81;20987;-78
2022/09/20 11:06:57;;;;;;;5.35;4.85;;;;;;;14.55;71.26;98814.22;2183499;81;21039;-78
2022/09/20 11:09:58;;;;;;;4.60;3.70;;;;;;;14.71;71.04;98801.00;2184143;81;21387;-78
2022/09/20 11:12:58;;;;;;;4.62;4.22;;;;;;;14.83;70.04;98803.16;2184981;81;21848;-79
2022/09/20 11:15:59;;;;;;;4.80;4.30;;;;;;;14.85;69.37;98797.45;2184708;81;21083;-78
2022/09/20 11:18:59;;;;;;;4.67;4.22;;;;;;;14.92;70.16;98803.54;2185729;81;20952;-78
2022/09/20 11:21:59;;;;;;;5.10;4.60;;;;;;;14.84;69.06;98801.40;2186252;81;20979;-79
2022/09/20 11:25:01;;;;;;;4.90;4.40;;;;;;;14.77;68.73;98806.26;2186511;81;20995;-80
2022/09/20 11:28:00;;;;;;;7.17;4.35;;;;;;;14.63;68.47;98811.11;2184832;81;21491;-79
2022/09/20 11:31:01;;;;;;;7.67;4.90;;;;;;;14.49;69.18;98813.37;2184436;81;20948;-78
2022/09/20 11:34:01;;;;;;;6.10;4.33;;;;;;;14.37;69.23;98810.32;2184201;81;21051;-79
2022/09/20 11:37:02;;;;;;;7.42;3.60;;;;;;;14.21;67.86;98813.44;2183836;81;21011;-80
2022/09/20 11:40:02;;;;;;;9.10;4.58;;;;;;;14.20;67.64;98817.38;2186602;81;20980;-79
2022/09/20 11:43:03;;;;;;;5.17;3.75;;;;;;;14.34;68.25;98819.08;2187673;81;21034;-80
2022/09/20 11:46:03;;;;;;;7.70;3.40;;;;;;;14.60;67.84;98811.56;2187327;81;21332;-79
2022/09/20 11:49:03;;;;;;;6.28;3.67;;;;;;;14.78;67.77;98808.00;2186651;81;21018;-79
2022/09/20 11:52:04;;;;;;;3.33;3.02;;;;;;;15.12;64.51;98818.73;2186630;81;20999;-79
2022/09/20 11:55:04;;;;;;;3.47;2.80;;;;;;;15.14;64.63;98801.64;2186317;81;20995;-79
2022/09/20 11:58:05;;;;;;;12.85;4.30;;;;;;;15.07;63.19;98816.58;2186064;81;21292;-79
2022/09/20 12:01:05;;;;;;;5.62;3.77;;;;;;;14.96;63.51;98828.92;2185962;81;20929;-79
2022/09/20 12:04:05;;;;;;;5.15;3.58;;;;;;;15.08;64.51;98820.08;2186278;81;20971;-79
2022/09/20 12:07:06;;;;;;;3.98;3.05;;;;;;;15.21;64.21;98820.43;2183685;81;21323;-79
2022/09/20 12:10:07;;;;;;;3.20;2.90;;;;;;;15.41;64.78;98815.02;2185974;81;20976;-78
2022/09/20 12:13:07;;;;;;;6.53;3.20;;;;;;;15.48;62.24;98811.02;2183021;81;21271;-79
2022/09/20 12:16:07;;;;;;;4.10;3.10;;;;;;;15.35;63.97;98816.38;2184179;81;21339;-78
2022/09/20 12:19:08;;;;;;;3.55;2.98;;;;;;;15.30;64.44;98813.34;2184314;81;21058;-79
2022/09/20 12:22:08;;;;;;;3.58;2.55;;;;;;;15.24;64.54;98819.97;2184714;81;21513;-79
2022/09/20 12:25:08;;;;;;;4.95;3.00;;;;;;;15.08;63.76;98824.91;2182244;81;21015;-77
2022/09/20 12:28:09;;;;;;;3.62;2.98;;;;;;;15.02;64.59;98817.05;2183610;81;21380;-79
2022/09/20 12:31:09;;;;;;;6.80;3.50;;;;;;;14.91;65.74;98809.23;2183063;81;20971;-79
2022/09/20 12:34:10;;;;;;;3.80;3.08;;;;;;;14.84;64.80;98808.84;2181714;81;20963;-78
2022/09/20 12:37:10;;;;;;;4.50;3.33;;;;;;;14.70;64.63;98817.65;2181639;81;21114;-80
2022/09/20 12:40:11;;;;;;;3.47;3.17;;;;;;;14.57;66.11;98816.83;2184139;81;20968;-81
2022/09/20 12:43:11;;;;;;;10.10;5.25;;;;;;;14.44;66.55;98814.70;2187047;81;20972;-80
2022/09/20 12:46:11;;;;;;;6.90;4.30;;;;;;;14.33;65.44;98816.46;2186931;81;20991;-80
2022/09/20 12:52:49;;;;;;;9.60;5.03;;;;;;;14.20;65.58;98816.07;2187282;81;20940;-80
2022/09/20 12:55:31;;;;;;;3.30;3.00;;;;;;;13.86;66.63;98810.00;2186189;81;21031;-79
2022/09/20 12:58:31;;;;;;;3.30;3.00;;;;;;;13.77;68.32;98815.27;2186518;81;21035;-79
2022/09/20 13:01:31;;;;;;;5.80;3.60;;;;;;;13.84;68.33;98805.20;2186640;81;21398;-79
2022/09/20 13:04:32;;;;;;;8.28;4.15;;;;;;;14.09;68.61;98805.60;2184549;81;21007;-78
2022/09/20 13:07:32;;;;;;;7.28;4.25;;;;;;;14.43;67.12;98805.08;2184544;81;21003;-78
2022/09/20 13:10:33;;;;;;;6.75;3.80;;;;;;;14.76;66.82;98803.20;2184721;81;20972;-79
2022/09/20 13:13:33;;;;;;;4.28;3.60;;;;;;;14.85;65.93;98809.72;2184890;81;21360;-80
2022/09/20 13:16:33;;;;;;;9.13;4.17;;;;;;;14.70;64.61;98802.75;2186244;81;21016;-78
2022/09/20 13:19:37;;;;;;;5.50;4.15;;;;;;;14.45;64.55;98812.51;2183037;81;21308;-79
2022/09/20 13:22:35;;;;;;;4.15;3.75;;;;;;;14.37;66.22;98816.89;2182532;81;20999;-78
2022/09/20 13:25:35;;;;;;;4.20;3.80;;;;;;;14.46;67.32;98812.94;2182993;81;21406;-79
2022/09/20 13:28:35;;;;;;;5.37;3.92;;;;;;;14.44;66.80;98814.70;2182376;81;21336;-78
2022/09/20 13:31:35;;;;;;;4.08;3.67;;;;;;;14.63;65.76;98816.37;2183375;81;20967;-78
2022/09/20 13:34:36;;;;;;;6.05;4.58;;;;;;;14.87;65.66;98804.87;2184947;81;20991;-79
2022/09/20 13:37:36;;;;;;;3.67;3.37;;;;;;;14.91;63.62;98801.80;2185551;81;21387;-78
2022/09/20 13:40:41;;;;;;;4.35;3.90;;;;;;;14.76;64.11;98804.07;2186979;81;21011;-79
2022/09/20 13:43:37;;;;;;;4.15;3.72;;;;;;;14.65;63.72;98808.48;2186017;81;21003;-80
2022/09/20 13:46:37;;;;;;;3.58;3.27;;;;;;;14.76;64.48;98802.75;2187377;81;20987;-79
2022/09/20 13:49:38;;;;;;;5.47;3.83;;;;;;;14.94;64.18;98805.27;2186214;81;20964;-78
2022/09/20 13:52:38;;;;;;;5.03;3.90;;;;;;;15.13;64.22;98799.89;2187027;81;21031;-79
2022/09/20 13:55:39;;;;;;;8.00;4.90;;;;;;;15.12;64.01;98805.59;2189294;81;20976;-80
2022/09/20 13:58:39;;;;;;;3.75;3.27;;;;;;;14.87;65.02;98804.87;2190078;81;21011;-80
2022/09/20 14:01:40;;;;;;;4.15;3.75;;;;;;;14.73;64.45;98804.49;2188521;81;20975;-80
2022/09/20 14:04:40;;;;;;;5.72;4.45;;;;;;;14.63;64.65;98800.60;2188367;81;21035;-80
2022/09/20 14:07:40;;;;;;;5.58;4.90;;;;;;;14.68;65.57;98799.70;2186732;81;20972;-78
2022/09/20 14:10:42;;;;;;;7.30;4.08;;;;;;;14.64;64.19;98802.34;2184770;81;20991;-79
2022/09/20 14:13:41;;;;;;;4.58;4.17;;;;;;;14.62;65.45;98809.36;2186419;81;21396;-78
2022/09/20 14:16:45;;;;;;;6.30;4.40;;;;;;;14.53;65.99;98808.53;2185746;81;21083;-78